Time;durP1;ratioP1;P1;durP2;ratioP2;P2;SDS_P1;SDS_P2;PMS_P1;PMS_P2;Temp;Humidity;BMP_temperature;BMP_pressure;BME280_temperature;BME280_humidity;BME280_pressure;Samples;Min_cycle;Max_cycle;Signal;HPM_P1;HPM_P2
2023/07/21 00:01:12;;;;;;;1.77;1.10;;;;;;;;;;4837648;29;20853;-76
2023/07/21 00:03:41;;;;;;;1.70;0.90;;;;;;;;;;4840950;29;20508;-76
2023/07/21 00:06:12;;;;;;;2.27;0.90;;;;;;;;;;4860796;29;20486;-77
2023/07/21 00:08:39;;;;;;;1.50;0.80;;;;;;;;;;4870114;29;20560;-77
2023/07/21 00:11:07;;;;;;;1.50;0.70;;;;;;;;;;4876465;29;20505;-77
2023/07/21 00:13:35;;;;;;;1.93;0.90;;;;;;;;;;4878593;29;20799;-77
2023/07/21 00:16:04;;;;;;;1.60;0.70;;;;;;;;;;4852764;29;20518;-77
2023/07/21 00:18:33;;;;;;;1.87;0.80;;;;;;;;;;4866751;29;20875;-76
2023/07/21 00:21:00;;;;;;;2.90;1.33;;;;;;;;;;4878772;29;20486;-76
2023/07/21 00:23:30;;;;;;;1.60;0.90;;;;;;;;;;4877542;29;20510;-76
2023/07/21 00:25:57;;;;;;;2.43;0.70;;;;;;;;;;4878731;29;21012;-76
2023/07/21 00:28:25;;;;;;;1.40;0.70;;;;;;;;;;4878771;29;20886;-76
2023/07/21 00:30:52;;;;;;;1.50;0.77;;;;;;;;;;4878540;29;20537;-77
2023/07/21 00:33:21;;;;;;;1.53;0.73;;;;;;;;;;4879353;29;20530;-77
2023/07/21 00:35:50;;;;;;;1.50;0.80;;;;;;;;;;4878764;29;21005;-76
2023/07/21 00:38:18;;;;;;;1.30;0.60;;;;;;;;;;4879255;29;20454;-76
2023/07/21 00:40:46;;;;;;;1.30;0.73;;;;;;;;;;4878360;29;20554;-76
2023/07/21 00:43:17;;;;;;;2.13;0.80;;;;;;;;;;4879116;29;21042;-76
2023/07/21 00:45:46;;;;;;;1.40;0.77;;;;;;;;;;4871380;29;20485;-76
2023/07/21 00:48:14;;;;;;;1.90;0.73;;;;;;;;;;4878627;29;20458;-75
2023/07/21 00:50:43;;;;;;;2.23;0.90;;;;;;;;;;4877276;29;20888;-76
2023/07/21 00:53:13;;;;;;;2.27;0.97;;;;;;;;;;4878138;29;20835;-76
2023/07/21 00:55:42;;;;;;;2.23;0.90;;;;;;;;;;4878277;29;20901;-76
2023/07/21 00:58:10;;;;;;;2.10;0.90;;;;;;;;;;4876281;29;20538;-76
2023/07/21 01:00:38;;;;;;;1.43;0.63;;;;;;;;;;4876203;29;20459;-76
2023/07/21 01:03:08;;;;;;;2.00;0.83;;;;;;;;;;4878115;29;20459;-76
2023/07/21 01:05:36;;;;;;;2.27;0.90;;;;;;;;;;4899259;29;20451;-76
2023/07/21 01:08:05;;;;;;;2.17;1.30;;;;;;;;;;4932399;29;20490;-76
2023/07/21 01:10:36;;;;;;;1.93;0.70;;;;;;;;;;4934287;29;20468;-76
2023/07/21 01:13:03;;;;;;;2.37;0.77;;;;;;;;;;4916983;29;20483;-76
2023/07/21 01:15:32;;;;;;;1.80;0.83;;;;;;;;;;4932675;29;20476;-76
2023/07/21 01:17:59;;;;;;;1.40;0.80;;;;;;;;;;4932225;29;20531;-76
2023/07/21 01:20:28;;;;;;;2.07;0.90;;;;;;;;;;4933103;29;20519;-77
2023/07/21 01:22:59;;;;;;;1.57;0.90;;;;;;;;;;4933697;29;20455;-77
2023/07/21 01:25:29;;;;;;;2.00;0.80;;;;;;;;;;4933857;29;20455;-76
2023/07/21 01:27:57;;;;;;;2.20;1.00;;;;;;;;;;4932946;29;21144;-76
2023/07/21 01:30:24;;;;;;;1.53;0.80;;;;;;;;;;4933962;29;20467;-76
2023/07/21 01:32:54;;;;;;;1.40;0.60;;;;;;;;;;4927930;29;21450;-76
2023/07/21 01:35:22;;;;;;;3.37;1.00;;;;;;;;;;4933422;29;20448;-76
2023/07/21 01:37:50;;;;;;;1.67;0.97;;;;;;;;;;4931851;29;20534;-76
2023/07/21 01:40:19;;;;;;;1.70;0.77;;;;;;;;;;4934030;29;20475;-76
2023/07/21 01:42:49;;;;;;;2.07;0.93;;;;;;;;;;4933096;29;20940;-76
2023/07/21 01:58:20;;;;;;;2.23;1.13;;;;;;;;;;5437294;23;20490;-74
2023/07/21 02:00:48;;;;;;;2.27;1.03;;;;;;;;;;4948837;28;20549;-72
2023/07/21 02:03:17;;;;;;;1.50;0.90;;;;;;;;;;4955794;29;20962;-73
2023/07/21 02:05:45;;;;;;;1.40;0.70;;;;;;;;;;4946078;28;20490;-73
2023/07/21 02:08:12;;;;;;;1.60;0.80;;;;;;;;;;4957867;28;20446;-73
2023/07/21 02:10:40;;;;;;;2.53;0.97;;;;;;;;;;4952874;28;20474;-73
2023/07/21 02:13:09;;;;;;;1.60;0.80;;;;;;;;;;4953863;28;20516;-73
2023/07/21 02:15:38;;;;;;;1.60;0.80;;;;;;;;;;4954200;29;20479;-72
2023/07/21 02:18:05;;;;;;;1.47;0.80;;;;;;;;;;4952895;29;20482;-72
2023/07/21 02:20:33;;;;;;;1.70;0.87;;;;;;;;;;4951032;28;20483;-73
2023/07/21 02:23:01;;;;;;;1.63;0.80;;;;;;;;;;4952288;29;20435;-73
2023/07/21 02:25:28;;;;;;;2.83;1.10;;;;;;;;;;4952956;29;20545;-73
2023/07/21 02:27:56;;;;;;;1.93;0.87;;;;;;;;;;4953854;28;21017;-73
2023/07/21 02:30:23;;;;;;;2.50;0.90;;;;;;;;;;4963870;28;20494;-73
2023/07/21 02:32:52;;;;;;;2.20;0.87;;;;;;;;;;4974029;28;20467;-73
2023/07/21 02:35:19;;;;;;;2.43;1.17;;;;;;;;;;4961319;29;20443;-73
2023/07/21 02:37:47;;;;;;;2.13;0.93;;;;;;;;;;4984893;28;20472;-73
2023/07/21 02:40:14;;;;;;;1.90;0.80;;;;;;;;;;4982242;28;20470;-73
2023/07/21 02:42:42;;;;;;;2.00;1.20;;;;;;;;;;4977879;28;20510;-73
2023/07/21 02:45:10;;;;;;;1.93;0.97;;;;;;;;;;4978134;28;20451;-73
2023/07/21 02:47:37;;;;;;;2.93;1.00;;;;;;;;;;4977663;28;20431;-72
2023/07/21 02:50:11;;;;;;;1.60;0.83;;;;;;;;;;4966435;28;20498;-73
2023/07/21 02:52:38;;;;;;;1.60;0.90;;;;;;;;;;4968445;28;20446;-72
2023/07/21 02:55:07;;;;;;;1.83;0.80;;;;;;;;;;4968004;29;20515;-72
2023/07/21 02:57:36;;;;;;;1.30;0.60;;;;;;;;;;4975811;29;20478;-72
2023/07/21 03:00:04;;;;;;;1.80;1.00;;;;;;;;;;4977957;28;20470;-72
2023/07/21 03:02:34;;;;;;;1.67;0.80;;;;;;;;;;4974644;29;20446;-72
2023/07/21 03:05:04;;;;;;;2.30;0.93;;;;;;;;;;4953957;28;20483;-71
2023/07/21 03:07:33;;;;;;;2.10;0.70;;;;;;;;;;4949521;29;20435;-71
2023/07/21 03:10:00;;;;;;;2.03;0.83;;;;;;;;;;4943371;29;20491;-71
2023/07/21 03:12:27;;;;;;;1.70;0.90;;;;;;;;;;4937858;29;20448;-71
2023/07/21 03:14:55;;;;;;;2.17;0.90;;;;;;;;;;4942688;29;21287;-72
2023/07/21 03:17:23;;;;;;;1.60;0.80;;;;;;;;;;4947741;29;20506;-71
2023/07/21 03:19:50;;;;;;;1.90;0.70;;;;;;;;;;4945328;28;20490;-72
2023/07/21 03:22:18;;;;;;;1.40;0.80;;;;;;;;;;4943409;29;20487;-72
2023/07/21 03:24:46;;;;;;;1.73;0.80;;;;;;;;;;4947675;29;20467;-72
2023/07/21 03:27:14;;;;;;;1.60;1.00;;;;;;;;;;4944707;29;20478;-72
2023/07/21 03:29:42;;;;;;;1.83;0.90;;;;;;;;;;4947757;28;20483;-71
2023/07/21 03:47:46;;;;;;;2.47;1.13;;;;;;;;;;5305430;23;20587;-76
2023/07/21 03:50:14;;;;;;;1.73;0.63;;;;;;;;;;4994309;28;20467;-75
2023/07/21 03:52:41;;;;;;;2.57;0.90;;;;;;;;;;4973499;28;21006;-75
2023/07/21 03:55:09;;;;;;;4.03;1.10;;;;;;;;;;4996698;28;20463;-75
2023/07/21 03:57:36;;;;;;;1.30;0.60;;;;;;;;;;5001964;28;20480;-75
2023/07/21 04:00:05;;;;;;;1.87;0.80;;;;;;;;;;5001300;28;20907;-75
2023/07/21 04:02:34;;;;;;;2.10;0.90;;;;;;;;;;5001185;28;21009;-75
2023/07/21 04:05:03;;;;;;;2.30;1.03;;;;;;;;;;4996331;28;20468;-76
2023/07/21 04:07:31;;;;;;;1.83;1.13;;;;;;;;;;4985573;28;20442;-76
2023/07/21 04:09:58;;;;;;;1.90;1.10;;;;;;;;;;4996427;28;20955;-75
2023/07/21 04:12:26;;;;;;;2.23;0.90;;;;;;;;;;5005270;28;20471;-76
2023/07/21 04:14:54;;;;;;;1.70;0.73;;;;;;;;;;4998280;28;20969;-77
2023/07/21 04:17:23;;;;;;;1.73;1.10;;;;;;;;;;4986896;28;20500;-77
2023/07/21 04:19:50;;;;;;;1.50;0.70;;;;;;;;;;5001798;28;20579;-77
2023/07/21 04:22:18;;;;;;;2.30;1.00;;;;;;;;;;4999538;28;20506;-75
2023/07/21 04:24:46;;;;;;;1.40;0.70;;;;;;;;;;4999506;28;20512;-76
2023/07/21 04:27:14;;;;;;;1.30;0.67;;;;;;;;;;4975116;28;20448;-75
2023/07/21 04:29:41;;;;;;;2.00;0.70;;;;;;;;;;4996900;28;21069;-76
2023/07/21 04:32:09;;;;;;;1.63;0.80;;;;;;;;;;4976794;28;20456;-77
2023/07/21 04:34:36;;;;;;;2.27;1.20;;;;;;;;;;4993767;28;20488;-75
2023/07/21 04:37:09;;;;;;;2.67;0.80;;;;;;;;;;4977320;28;20493;-75
2023/07/21 04:39:39;;;;;;;1.47;0.73;;;;;;;;;;4988111;28;20480;-76
2023/07/21 04:42:08;;;;;;;1.60;0.90;;;;;;;;;;4989227;28;20461;-76
2023/07/21 04:44:35;;;;;;;1.70;0.90;;;;;;;;;;4984830;28;20437;-76
2023/07/21 04:47:04;;;;;;;2.50;1.40;;;;;;;;;;4989888;28;20456;-76
2023/07/21 04:49:34;;;;;;;2.00;1.00;;;;;;;;;;4997162;28;20476;-76
2023/07/21 04:52:04;;;;;;;1.60;0.80;;;;;;;;;;4995660;28;20507;-75
2023/07/21 04:54:31;;;;;;;2.63;1.67;;;;;;;;;;5000232;28;20456;-77
2023/07/21 05:12:35;;;;;;;1.90;0.97;;;;;;;;;;4946014;29;20684;-72
2023/07/21 05:15:02;;;;;;;2.40;1.13;;;;;;;;;;4946820;29;21339;-71
2023/07/21 05:17:29;;;;;;;1.87;0.83;;;;;;;;;;4950286;29;20845;-72
2023/07/21 05:19:57;;;;;;;1.57;0.93;;;;;;;;;;4950864;29;20574;-72
2023/07/21 05:22:25;;;;;;;1.60;0.93;;;;;;;;;;4939648;29;20479;-72
2023/07/21 05:24:53;;;;;;;1.50;0.80;;;;;;;;;;4937090;29;20471;-71
2023/07/21 05:27:22;;;;;;;1.70;1.10;;;;;;;;;;4936303;29;20456;-72
2023/07/21 05:29:50;;;;;;;2.20;1.13;;;;;;;;;;4939739;29;20514;-72
2023/07/21 05:32:18;;;;;;;2.40;1.43;;;;;;;;;;4938402;29;21081;-71
2023/07/21 05:34:49;;;;;;;2.27;1.07;;;;;;;;;;4947732;29;20467;-72
2023/07/21 05:37:17;;;;;;;1.37;0.80;;;;;;;;;;4941534;29;20570;-71
2023/07/21 05:39:44;;;;;;;11.60;0.97;;;;;;;;;;4935736;29;20527;-73
2023/07/21 05:42:11;;;;;;;2.43;0.90;;;;;;;;;;4934380;28;20468;-73
2023/07/21 05:44:39;;;;;;;2.47;1.20;;;;;;;;;;4939945;29;20455;-72
2023/07/21 05:47:09;;;;;;;1.43;0.83;;;;;;;;;;4937723;29;20470;-72
2023/07/21 05:49:36;;;;;;;2.87;1.10;;;;;;;;;;4939022;29;20570;-73
2023/07/21 05:52:06;;;;;;;1.43;0.90;;;;;;;;;;4944794;29;20467;-72
2023/07/21 05:54:34;;;;;;;2.23;1.00;;;;;;;;;;4941192;29;20491;-73
2023/07/21 05:57:01;;;;;;;2.00;1.20;;;;;;;;;;4943504;29;20497;-73
2023/07/21 05:59:31;;;;;;;2.17;1.03;;;;;;;;;;4944783;29;20523;-73
2023/07/21 06:02:00;;;;;;;3.10;0.87;;;;;;;;;;4937137;29;20456;-73
2023/07/21 06:17:29;;;;;;;1.70;0.80;;;;;;;;;;5623855;23;20586;-73
2023/07/21 06:19:56;;;;;;;1.33;0.80;;;;;;;;;;5008882;28;21109;-76
2023/07/21 06:22:24;;;;;;;2.33;0.97;;;;;;;;;;5010123;28;20503;-76
2023/07/21 06:24:51;;;;;;;1.40;0.70;;;;;;;;;;5008677;28;20452;-76
2023/07/21 06:27:18;;;;;;;2.63;0.83;;;;;;;;;;5004513;28;20456;-75
2023/07/21 06:29:46;;;;;;;1.47;0.83;;;;;;;;;;4989897;28;20974;-74
2023/07/21 06:32:13;;;;;;;1.97;1.07;;;;;;;;;;5056417;23;20490;-68
2023/07/21 06:34:44;;;;;;;1.63;0.97;;;;;;;;;;5011225;28;20982;-68
2023/07/21 06:37:12;;;;;;;2.70;1.23;;;;;;;;;;5006322;28;21196;-67
2023/07/21 06:39:39;;;;;;;2.00;1.07;;;;;;;;;;5008570;28;21020;-69
2023/07/21 06:42:07;;;;;;;2.07;1.33;;;;;;;;;;5008217;28;20974;-69
2023/07/21 06:44:35;;;;;;;2.07;1.00;;;;;;;;;;5012339;28;20448;-68
2023/07/21 06:47:03;;;;;;;2.67;0.90;;;;;;;;;;5009732;28;20440;-68
2023/07/21 06:49:31;;;;;;;1.60;1.17;;;;;;;;;;5010480;28;20826;-69
2023/07/21 06:52:00;;;;;;;1.87;1.13;;;;;;;;;;5010692;28;20811;-68
2023/07/21 06:54:29;;;;;;;1.50;0.90;;;;;;;;;;5010479;28;20533;-69
2023/07/21 06:56:58;;;;;;;1.60;1.00;;;;;;;;;;5014775;28;20498;-69
2023/07/21 06:59:25;;;;;;;1.53;0.93;;;;;;;;;;5014936;28;20468;-68
2023/07/21 07:01:52;;;;;;;3.30;1.30;;;;;;;;;;5012458;28;20471;-71
2023/07/21 07:04:21;;;;;;;3.10;1.27;;;;;;;;;;5014898;28;20478;-71
2023/07/21 07:06:49;;;;;;;1.50;0.70;;;;;;;;;;5014992;28;20443;-69
2023/07/21 07:09:18;;;;;;;2.50;1.33;;;;;;;;;;5015985;28;21050;-69
2023/07/21 07:11:45;;;;;;;1.87;1.10;;;;;;;;;;5014346;28;20471;-69
2023/07/21 07:14:13;;;;;;;2.87;0.97;;;;;;;;;;5011392;28;20958;-70
2023/07/21 07:32:17;;;;;;;1.40;0.70;;;;;;;;;;5193898;23;20500;-76
2023/07/21 07:34:44;;;;;;;2.17;0.90;;;;;;;;;;5004376;28;20989;-75
2023/07/21 07:37:12;;;;;;;2.37;0.90;;;;;;;;;;5007527;28;20666;-75
2023/07/21 07:39:40;;;;;;;2.47;1.07;;;;;;;;;;5009461;28;20587;-75
2023/07/21 07:42:08;;;;;;;1.70;0.93;;;;;;;;;;5002845;28;20843;-75
2023/07/21 07:44:35;;;;;;;1.57;1.10;;;;;;;;;;4998724;28;20804;-75
2023/07/21 07:47:02;;;;;;;1.80;1.00;;;;;;;;;;4997702;28;20843;-75
2023/07/21 07:49:31;;;;;;;2.27;1.10;;;;;;;;;;5001599;28;20534;-75
2023/07/21 07:51:58;;;;;;;1.47;0.90;;;;;;;;;;5001304;28;20461;-75
2023/07/21 07:54:26;;;;;;;1.87;0.97;;;;;;;;;;5006689;28;20448;-75
2023/07/21 07:56:54;;;;;;;1.30;0.80;;;;;;;;;;4969315;28;20444;-75
2023/07/21 07:59:21;;;;;;;1.73;1.13;;;;;;;;;;5005240;28;20524;-75
2023/07/21 08:01:48;;;;;;;3.53;1.70;;;;;;;;;;5007617;28;20879;-75
2023/07/21 08:04:16;;;;;;;1.63;0.93;;;;;;;;;;4998679;28;20445;-75
2023/07/21 08:06:45;;;;;;;1.70;1.00;;;;;;;;;;5001294;28;20457;-75
2023/07/21 08:09:13;;;;;;;1.50;0.67;;;;;;;;;;4999129;28;20481;-74
2023/07/21 08:11:40;;;;;;;2.80;1.03;;;;;;;;;;4984596;28;20506;-74
2023/07/21 08:14:11;;;;;;;1.63;0.87;;;;;;;;;;5003791;28;20837;-75
2023/07/21 08:16:38;;;;;;;1.83;1.20;;;;;;;;;;4987052;28;20444;-75
2023/07/21 08:19:06;;;;;;;2.17;1.40;;;;;;;;;;5007251;28;20484;-76
2023/07/21 08:21:34;;;;;;;1.30;0.77;;;;;;;;;;5001115;28;20461;-73
2023/07/21 08:24:03;;;;;;;1.40;0.70;;;;;;;;;;5002691;28;20452;-75
2023/07/21 08:26:30;;;;;;;2.23;1.27;;;;;;;;;;4947537;28;20442;-76
2023/07/21 08:28:58;;;;;;;3.00;1.33;;;;;;;;;;4992486;28;20461;-75
2023/07/21 08:44:27;;;;;;;2.67;1.00;;;;;;;;;;5911309;23;20537;-76
2023/07/21 08:46:55;;;;;;;2.20;1.20;;;;;;;;;;5021149;28;20448;-77
2023/07/21 08:49:23;;;;;;;1.80;0.80;;;;;;;;;;5016471;28;20464;-75
2023/07/21 08:51:50;;;;;;;1.30;0.77;;;;;;;;;;5015124;28;20969;-75
2023/07/21 08:54:18;;;;;;;1.90;1.10;;;;;;;;;;5016856;28;20949;-75
2023/07/21 08:56:45;;;;;;;3.10;1.30;;;;;;;;;;5022369;28;20443;-73
2023/07/21 08:59:12;;;;;;;2.03;1.10;;;;;;;;;;5019825;28;20480;-71
2023/07/21 09:01:41;;;;;;;1.70;0.97;;;;;;;;;;5021903;28;20534;-72
2023/07/21 09:04:18;;;;;;;1.50;0.77;;;;;;;;;;5011866;28;20467;-75
2023/07/21 09:06:50;;;;;;;1.70;1.07;;;;;;;;;;5019762;28;20427;-73
2023/07/21 09:09:21;;;;;;;1.80;1.10;;;;;;;;;;5014585;28;20489;-75
2023/07/21 09:11:51;;;;;;;2.80;1.03;;;;;;;;;;5016849;28;20561;-74
2023/07/21 09:14:18;;;;;;;2.17;1.20;;;;;;;;;;5009974;28;20452;-74
2023/07/21 09:16:48;;;;;;;2.93;1.43;;;;;;;;;;5008784;28;20464;-75
2023/07/21 09:19:20;;;;;;;1.30;0.80;;;;;;;;;;4999361;28;20472;-73
2023/07/21 09:21:56;;;;;;;2.90;1.67;;;;;;;;;;5021867;28;20541;-73
2023/07/21 09:24:24;;;;;;;2.20;1.00;;;;;;;;;;5012161;28;20450;-75
2023/07/21 09:26:51;;;;;;;3.53;2.10;;;;;;;;;;5017793;28;21025;-75
2023/07/21 09:29:19;;;;;;;1.67;1.17;;;;;;;;;;4997374;28;20539;-73
2023/07/21 09:31:48;;;;;;;1.70;1.13;;;;;;;;;;5016762;28;20452;-74
2023/07/21 09:34:15;;;;;;;2.80;1.33;;;;;;;;;;5005646;28;20445;-74
2023/07/21 09:36:45;;;;;;;2.30;1.27;;;;;;;;;;4995640;28;20476;-74
2023/07/21 09:39:15;;;;;;;2.40;1.17;;;;;;;;;;5003422;28;20553;-73
2023/07/21 09:41:43;;;;;;;1.57;0.70;;;;;;;;;;5017117;28;20981;-75
2023/07/21 09:44:11;;;;;;;1.30;0.77;;;;;;;;;;5009862;28;20984;-75
2023/07/21 09:46:40;;;;;;;1.70;1.00;;;;;;;;;;5018338;28;20534;-75
2023/07/21 10:04:44;;;;;;;2.43;1.03;;;;;;;;;;5226830;23;20482;-70
2023/07/21 10:07:12;;;;;;;1.40;0.90;;;;;;;;;;5008464;28;20459;-71
2023/07/21 10:09:40;;;;;;;2.03;1.03;;;;;;;;;;5017293;28;20476;-71
2023/07/21 10:12:10;;;;;;;1.93;1.27;;;;;;;;;;5021448;28;20503;-69
2023/07/21 10:14:38;;;;;;;1.80;0.90;;;;;;;;;;5012150;28;20547;-70
2023/07/21 10:17:06;;;;;;;1.77;0.97;;;;;;;;;;5021586;28;20830;-70
2023/07/21 10:19:40;;;;;;;2.17;1.20;;;;;;;;;;5014842;28;20905;-69
2023/07/21 10:22:11;;;;;;;2.00;1.03;;;;;;;;;;5021453;28;20527;-72
2023/07/21 10:24:45;;;;;;;1.33;0.80;;;;;;;;;;5013999;28;20935;-70
2023/07/21 10:27:19;;;;;;;1.47;0.90;;;;;;;;;;5021104;28;20459;-69
2023/07/21 10:29:46;;;;;;;1.30;0.70;;;;;;;;;;5012833;28;20483;-73
2023/07/21 10:32:14;;;;;;;2.50;1.30;;;;;;;;;;5019552;28;20817;-69
2023/07/21 10:34:42;;;;;;;1.50;0.97;;;;;;;;;;5028796;28;20451;-70
2023/07/21 10:37:12;;;;;;;2.23;1.00;;;;;;;;;;5025424;28;20451;-70
2023/07/21 10:39:42;;;;;;;1.40;0.80;;;;;;;;;;5015867;28;20483;-70
2023/07/21 10:42:11;;;;;;;1.87;1.00;;;;;;;;;;4996772;28;20451;-70
2023/07/21 10:44:39;;;;;;;1.93;1.10;;;;;;;;;;5017244;28;20544;-70
2023/07/21 10:47:07;;;;;;;1.93;0.80;;;;;;;;;;5024114;28;20531;-70
2023/07/21 10:49:36;;;;;;;1.40;0.80;;;;;;;;;;5020699;28;20471;-71
2023/07/21 10:52:05;;;;;;;2.20;1.10;;;;;;;;;;5018022;28;20447;-70
2023/07/21 10:54:33;;;;;;;1.77;0.80;;;;;;;;;;5020606;28;20466;-71
2023/07/21 10:57:02;;;;;;;1.40;0.77;;;;;;;;;;5029991;28;20547;-73
2023/07/21 10:59:32;;;;;;;1.87;1.13;;;;;;;;;;5021997;28;20491;-73
2023/07/21 11:01:59;;;;;;;2.60;0.90;;;;;;;;;;5018353;28;20458;-74
2023/07/21 11:04:27;;;;;;;2.30;1.10;;;;;;;;;;5018160;28;20526;-73
2023/07/21 11:06:55;;;;;;;1.90;1.00;;;;;;;;;;5021011;28;20455;-74
2023/07/21 11:09:23;;;;;;;1.73;0.90;;;;;;;;;;5019009;28;20438;-74
2023/07/21 11:11:53;;;;;;;1.60;0.87;;;;;;;;;;5022642;28;20460;-74
2023/07/21 11:14:23;;;;;;;2.93;1.10;;;;;;;;;;5024438;28;20440;-74
2023/07/21 11:16:52;;;;;;;1.53;0.90;;;;;;;;;;5024843;28;20987;-74
2023/07/21 11:35:02;;;;;;;2.27;1.30;;;;;;;;;;5431260;23;21036;-74
2023/07/21 11:37:58;;;;;;;2.87;1.20;;;;;;;;;;5046253;28;20461;-75
2023/07/21 11:40:26;;;;;;;1.90;1.30;;;;;;;;;;5004441;28;20471;-76
2023/07/21 11:43:00;;;;;;;2.63;1.33;;;;;;;;;;5008864;28;20452;-77
2023/07/21 11:45:35;;;;;;;1.90;1.00;;;;;;;;;;4983550;28;20476;-75
2023/07/21 11:48:12;;;;;;;3.20;1.10;;;;;;;;;;5026034;28;20577;-75
2023/07/21 11:50:42;;;;;;;1.67;0.93;;;;;;;;;;5024521;28;20466;-75
2023/07/21 11:53:11;;;;;;;2.13;0.97;;;;;;;;;;5025642;28;20486;-75
2023/07/21 11:55:40;;;;;;;1.87;1.07;;;;;;;;;;5025089;28;20539;-75
2023/07/21 11:58:08;;;;;;;2.10;1.20;;;;;;;;;;5023955;28;20952;-75
2023/07/21 12:00:36;;;;;;;1.87;1.17;;;;;;;;;;5028120;28;20470;-75
2023/07/21 12:03:06;;;;;;;2.80;0.90;;;;;;;;;;5030471;28;20444;-75
2023/07/21 12:05:36;;;;;;;1.73;1.13;;;;;;;;;;5025420;28;20516;-74
2023/07/21 12:08:06;;;;;;;1.43;0.93;;;;;;;;;;5026388;28;20443;-77
2023/07/21 12:10:34;;;;;;;1.83;1.03;;;;;;;;;;5006991;28;20471;-76
2023/07/21 12:13:03;;;;;;;3.50;1.53;;;;;;;;;;5026921;28;20859;-75
2023/07/21 12:15:37;;;;;;;2.53;1.30;;;;;;;;;;5007542;28;20438;-76
2023/07/21 12:18:04;;;;;;;2.47;1.23;;;;;;;;;;5023708;28;20450;-76
2023/07/21 12:20:36;;;;;;;1.60;0.90;;;;;;;;;;5018772;28;20500;-75
2023/07/21 12:23:05;;;;;;;1.30;0.90;;;;;;;;;;5006858;28;20456;-75
2023/07/21 12:25:37;;;;;;;2.50;1.00;;;;;;;;;;5025995;28;20494;-75
2023/07/21 12:28:08;;;;;;;1.50;0.70;;;;;;;;;;5023286;28;20502;-74
2023/07/21 12:30:35;;;;;;;3.27;0.93;;;;;;;;;;5020166;28;20542;-75
2023/07/21 12:33:05;;;;;;;1.70;1.00;;;;;;;;;;5024088;28;20452;-75
2023/07/21 12:35:33;;;;;;;1.80;1.07;;;;;;;;;;5023506;28;20959;-76
2023/07/21 12:38:01;;;;;;;2.60;1.20;;;;;;;;;;5023163;28;20971;-76
2023/07/21 12:40:30;;;;;;;2.70;1.30;;;;;;;;;;5023047;28;20877;-75
2023/07/21 12:42:58;;;;;;;1.83;1.17;;;;;;;;;;5024854;28;20790;-75
2023/07/21 12:45:25;;;;;;;1.60;1.10;;;;;;;;;;5023113;28;20941;-75
2023/07/21 12:47:53;;;;;;;1.67;0.77;;;;;;;;;;5028895;28;20463;-75
2023/07/21 12:50:21;;;;;;;1.80;1.10;;;;;;;;;;5025082;28;20961;-75
2023/07/21 12:53:00;;;;;;;2.23;0.97;;;;;;;;;;5024433;28;20539;-75
2023/07/21 12:55:29;;;;;;;2.13;0.90;;;;;;;;;;5016742;28;20443;-74
2023/07/21 12:57:57;;;;;;;1.73;1.10;;;;;;;;;;5024321;28;20464;-75
2023/07/21 13:00:24;;;;;;;1.77;1.10;;;;;;;;;;5024202;28;20478;-74
2023/07/21 13:02:54;;;;;;;2.70;1.30;;;;;;;;;;5025264;28;20551;-75
2023/07/21 13:05:22;;;;;;;2.10;1.13;;;;;;;;;;5018995;28;20497;-75
2023/07/21 13:07:52;;;;;;;1.77;0.90;;;;;;;;;;5026984;28;20463;-74
2023/07/21 13:23:21;;;;;;;1.43;0.80;;;;;;;;;;5713601;23;20521;-72
2023/07/21 13:25:48;;;;;;;3.50;1.20;;;;;;;;;;5045970;28;20923;-72
2023/07/21 13:28:15;;;;;;;2.27;1.10;;;;;;;;;;5046957;28;20477;-73
2023/07/21 13:30:43;;;;;;;3.00;1.17;;;;;;;;;;5036214;28;20832;-72
2023/07/21 13:33:10;;;;;;;1.67;1.10;;;;;;;;;;5029835;28;20455;-72
2023/07/21 13:35:37;;;;;;;2.00;1.00;;;;;;;;;;5032645;28;20443;-73
2023/07/21 13:38:05;;;;;;;1.43;0.93;;;;;;;;;;5032570;28;20449;-72
2023/07/21 13:40:34;;;;;;;1.77;0.93;;;;;;;;;;5032547;28;20487;-73
2023/07/21 13:43:03;;;;;;;1.60;0.90;;;;;;;;;;5030798;28;20463;-72
2023/07/21 13:45:30;;;;;;;1.67;1.03;;;;;;;;;;5013457;28;20526;-73
2023/07/21 13:47:58;;;;;;;2.23;0.93;;;;;;;;;;5029903;28;21084;-73
2023/07/21 13:50:27;;;;;;;3.73;1.23;;;;;;;;;;5030978;28;20504;-72
2023/07/21 13:52:55;;;;;;;2.43;1.37;;;;;;;;;;5029816;28;20447;-72
2023/07/21 13:55:23;;;;;;;1.63;1.00;;;;;;;;;;5028333;28;20755;-72
2023/07/21 13:57:51;;;;;;;1.77;0.90;;;;;;;;;;5031908;28;20439;-72
2023/07/21 14:00:21;;;;;;;2.63;1.20;;;;;;;;;;5030414;28;20482;-72
2023/07/21 14:02:48;;;;;;;3.33;1.00;;;;;;;;;;5029466;28;21035;-73
2023/07/21 14:05:16;;;;;;;2.80;1.00;;;;;;;;;;5031702;28;20965;-71
2023/07/21 14:07:44;;;;;;;1.80;0.97;;;;;;;;;;5031247;28;20513;-72
2023/07/21 14:10:12;;;;;;;2.37;1.00;;;;;;;;;;5030604;28;20550;-73
2023/07/21 14:12:40;;;;;;;1.30;0.70;;;;;;;;;;5031588;28;20463;-72
2023/07/21 14:15:12;;;;;;;2.57;2.03;;;;;;;;;;5031754;28;20483;-72
2023/07/21 14:17:39;;;;;;;2.10;1.07;;;;;;;;;;5027746;28;20518;-72
2023/07/21 14:20:08;;;;;;;1.43;0.90;;;;;;;;;;5013050;28;20574;-73
2023/07/21 14:22:36;;;;;;;1.77;0.80;;;;;;;;;;5031104;28;20522;-73
2023/07/21 14:25:05;;;;;;;1.73;1.00;;;;;;;;;;5030574;28;20442;-73
2023/07/21 14:27:32;;;;;;;2.27;0.77;;;;;;;;;;5027486;28;20452;-73
2023/07/21 14:30:00;;;;;;;2.90;1.40;;;;;;;;;;5031516;28;20463;-73
2023/07/21 14:32:30;;;;;;;1.73;0.90;;;;;;;;;;5031566;28;20501;-73
2023/07/21 14:34:57;;;;;;;2.23;1.00;;;;;;;;;;5030568;28;20451;-73
2023/07/21 14:37:26;;;;;;;1.50;0.70;;;;;;;;;;5030891;28;20475;-73
2023/07/21 14:39:53;;;;;;;2.23;1.40;;;;;;;;;;5030217;28;20498;-72
2023/07/21 14:42:23;;;;;;;1.70;0.87;;;;;;;;;;5031024;28;20447;-72
2023/07/21 14:44:50;;;;;;;1.80;0.97;;;;;;;;;;5031347;28;20859;-72
2023/07/21 14:47:17;;;;;;;2.40;1.20;;;;;;;;;;4996105;28;20431;-72
2023/07/21 14:49:47;;;;;;;1.70;1.07;;;;;;;;;;5030764;28;20475;-72
2023/07/21 14:52:14;;;;;;;2.67;1.00;;;;;;;;;;5031164;28;20933;-72
2023/07/21 14:54:41;;;;;;;1.90;1.00;;;;;;;;;;5030981;28;20451;-72
2023/07/21 14:57:10;;;;;;;2.83;0.90;;;;;;;;;;5031156;28;20420;-71
2023/07/21 14:59:38;;;;;;;1.70;0.70;;;;;;;;;;5029355;28;20860;-72
2023/07/21 15:02:06;;;;;;;1.93;0.93;;;;;;;;;;5030728;28;20485;-71
2023/07/21 15:04:33;;;;;;;1.50;0.70;;;;;;;;;;5031185;28;20446;-71
2023/07/21 15:07:02;;;;;;;2.43;1.30;;;;;;;;;;5031273;28;21025;-71
2023/07/21 15:09:30;;;;;;;1.30;0.60;;;;;;;;;;5030258;28;20475;-71
2023/07/21 15:11:58;;;;;;;3.07;1.33;;;;;;;;;;5031265;28;20486;-71
2023/07/21 15:14:25;;;;;;;2.13;0.93;;;;;;;;;;5031517;28;20440;-71
2023/07/21 15:16:53;;;;;;;1.70;1.00;;;;;;;;;;5031361;28;20455;-72
2023/07/21 15:19:20;;;;;;;2.83;1.27;;;;;;;;;;5035307;28;20486;-72
2023/07/21 15:21:47;;;;;;;2.47;1.13;;;;;;;;;;5035533;28;20922;-72
2023/07/21 15:24:17;;;;;;;2.37;1.20;;;;;;;;;;5017661;28;20483;-72
2023/07/21 15:26:44;;;;;;;1.90;1.00;;;;;;;;;;5033968;28;20463;-72
2023/07/21 15:29:12;;;;;;;1.90;1.00;;;;;;;;;;5033937;28;20521;-72
2023/07/21 15:31:40;;;;;;;1.70;1.00;;;;;;;;;;5035080;28;20458;-72
2023/07/21 15:34:08;;;;;;;2.30;1.33;;;;;;;;;;5031350;28;20530;-72
2023/07/21 15:36:36;;;;;;;2.10;1.23;;;;;;;;;;5030451;28;20795;-71
2023/07/21 15:39:06;;;;;;;1.70;0.93;;;;;;;;;;5032944;28;20443;-72
2023/07/21 15:41:36;;;;;;;1.50;0.80;;;;;;;;;;5034518;28;20443;-72
2023/07/21 15:44:04;;;;;;;3.37;1.10;;;;;;;;;;5034550;28;20451;-72
2023/07/21 15:46:31;;;;;;;2.20;0.93;;;;;;;;;;5035394;28;20444;-72
2023/07/21 15:48:59;;;;;;;2.90;1.27;;;;;;;;;;5032084;28;20470;-72
2023/07/21 15:51:26;;;;;;;2.50;1.17;;;;;;;;;;5034755;28;20984;-73
2023/07/21 15:53:53;;;;;;;2.73;1.00;;;;;;;;;;5034361;28;20486;-72
2023/07/21 15:56:21;;;;;;;2.03;0.93;;;;;;;;;;5033750;28;20451;-72
2023/07/21 15:58:51;;;;;;;1.90;1.00;;;;;;;;;;5035873;28;20529;-73
2023/07/21 16:01:19;;;;;;;2.70;0.90;;;;;;;;;;5036124;28;20482;-72
2023/07/21 16:03:47;;;;;;;2.10;0.80;;;;;;;;;;5033299;28;20486;-72
2023/07/21 16:06:14;;;;;;;2.33;0.93;;;;;;;;;;5034912;28;20521;-72
2023/07/21 16:08:41;;;;;;;2.10;0.70;;;;;;;;;;5037633;28;20526;-72
2023/07/21 16:11:09;;;;;;;2.23;1.23;;;;;;;;;;5034418;28;20490;-72
2023/07/21 16:13:36;;;;;;;2.33;1.10;;;;;;;;;;5032397;28;20463;-72
2023/07/21 16:16:06;;;;;;;2.03;1.03;;;;;;;;;;5034028;28;20523;-72
2023/07/21 16:18:33;;;;;;;1.70;1.10;;;;;;;;;;5029994;28;20867;-71
2023/07/21 16:21:01;;;;;;;2.03;0.80;;;;;;;;;;5025651;28;20486;-71
2023/07/21 16:23:30;;;;;;;1.73;0.93;;;;;;;;;;5029747;28;20468;-72
2023/07/21 16:25:58;;;;;;;2.53;1.17;;;;;;;;;;5029180;28;20536;-72
2023/07/21 16:28:26;;;;;;;2.07;1.40;;;;;;;;;;5032265;28;20506;-71
2023/07/21 16:30:54;;;;;;;2.10;1.20;;;;;;;;;;5029805;28;20570;-72
2023/07/21 16:33:23;;;;;;;1.87;1.17;;;;;;;;;;5029352;28;20479;-71
2023/07/21 16:35:52;;;;;;;2.37;1.43;;;;;;;;;;5032512;28;20558;-72
2023/07/21 16:38:20;;;;;;;2.50;1.07;;;;;;;;;;5032641;28;20779;-72
2023/07/21 16:40:47;;;;;;;2.70;1.33;;;;;;;;;;5032439;28;20490;-71
2023/07/21 16:43:15;;;;;;;2.17;1.13;;;;;;;;;;5032319;28;20467;-70
2023/07/21 16:45:44;;;;;;;2.43;1.10;;;;;;;;;;5028057;28;20463;-71
2023/07/21 16:48:12;;;;;;;2.73;1.10;;;;;;;;;;4995436;28;20447;-69
2023/07/21 16:50:41;;;;;;;1.97;1.13;;;;;;;;;;5025562;28;20543;-70
2023/07/21 16:53:09;;;;;;;2.07;1.40;;;;;;;;;;5031547;28;20552;-69
2023/07/21 16:55:36;;;;;;;2.00;1.03;;;;;;;;;;5030455;28;20553;-69
2023/07/21 16:58:04;;;;;;;2.30;1.30;;;;;;;;;;5029161;28;20493;-70
2023/07/21 17:00:31;;;;;;;2.30;1.13;;;;;;;;;;5029480;28;20488;-71